sensor_id;sensor_type;location;lat;lon;timestamp;pressure;altitude;pressure_sealevel;temperature;humidity
37832;BME280;23671;38.090;-122.570;2023-07-09T00:00:52;101116.91;;;25.76;41.46
37832;BME280;23671;38.090;-122.570;2023-07-09T00:03:19;101129.19;;;25.72;41.59
37832;BME280;23671;38.090;-122.570;2023-07-09T00:05:48;101133.13;;;25.69;41.39
37832;BME280;23671;38.090;-122.570;2023-07-09T00:08:27;101120.22;;;25.65;41.50
37832;BME280;23671;38.090;-122.570;2023-07-09T00:10:56;101127.91;;;25.61;41.54
37832;BME280;23671;38.090;-122.570;2023-07-09T00:13:25;101116.47;;;25.59;41.56
37832;BME280;23671;38.090;-122.570;2023-07-09T00:15:54;101122.94;;;25.58;41.39
37832;BME280;23671;38.090;-122.570;2023-07-09T00:18:21;101115.44;;;25.54;41.21
37832;BME280;23671;38.090;-122.570;2023-07-09T00:20:49;101105.28;;;25.49;40.99
37832;BME280;23671;38.090;-122.570;2023-07-09T00:23:16;101112.53;;;25.49;41.12
37832;BME280;23671;38.090;-122.570;2023-07-09T00:25:46;101117.31;;;25.47;40.93
37832;BME280;23671;38.090;-122.570;2023-07-09T00:28:18;101103.41;;;25.43;40.86
37832;BME280;23671;38.090;-122.570;2023-07-09T00:30:45;101099.63;;;25.38;40.94
37832;BME280;23671;38.090;-122.570;2023-07-09T00:33:14;101107.31;;;25.34;41.01
37832;BME280;23671;38.090;-122.570;2023-07-09T00:35:46;101120.19;;;25.32;40.96
37832;BME280;23671;38.090;-122.570;2023-07-09T00:38:19;101102.72;;;25.28;40.81
37832;BME280;23671;38.090;-122.570;2023-07-09T00:41:02;101101.28;;;25.26;40.79
37832;BME280;23671;38.090;-122.570;2023-07-09T00:43:35;101100.88;;;25.22;40.77
37832;BME280;23671;38.090;-122.570;2023-07-09T00:49:02;101089.41;;;25.13;41.11
37832;BME280;23671;38.090;-122.570;2023-07-09T00:51:36;101094.41;;;25.10;40.97
37832;BME280;23671;38.090;-122.570;2023-07-09T00:54:46;101097.50;;;25.07;41.00
37832;BME280;23671;38.090;-122.570;2023-07-09T00:57:16;101089.81;;;25.04;41.05
37832;BME280;23671;38.090;-122.570;2023-07-09T00:59:46;101089.41;;;25.00;41.01
37832;BME280;23671;38.090;-122.570;2023-07-09T01:02:15;101088.16;;;24.96;41.25
37832;BME280;23671;38.090;-122.570;2023-07-09T01:04:54;101088.75;;;24.92;40.87
37832;BME280;23671;38.090;-122.570;2023-07-09T01:07:22;101080.22;;;24.88;40.87
37832;BME280;23671;38.090;-122.570;2023-07-09T01:09:50;101085.00;;;24.86;41.00
37832;BME280;23671;38.090;-122.570;2023-07-09T01:12:19;101092.91;;;24.81;41.28
37832;BME280;23671;38.090;-122.570;2023-07-09T01:14:48;101077.31;;;24.77;41.30
37832;BME280;23671;38.090;-122.570;2023-07-09T01:17:18;101077.09;;;24.72;40.92
37832;BME280;23671;38.090;-122.570;2023-07-09T01:19:50;101076.03;;;24.66;40.99
37832;BME280;23671;38.090;-122.570;2023-07-09T01:22:19;101082.44;;;24.65;40.73
37832;BME280;23671;38.090;-122.570;2023-07-09T01:25:05;101077.63;;;24.61;40.55
37832;BME280;23671;38.090;-122.570;2023-07-09T01:27:40;101070.16;;;24.56;40.67
37832;BME280;23671;38.090;-122.570;2023-07-09T01:30:24;101077.22;;;24.51;40.59
37832;BME280;23671;38.090;-122.570;2023-07-09T01:32:55;101082.16;;;24.47;40.96
37832;BME280;23671;38.090;-122.570;2023-07-09T01:35:23;101084.66;;;24.42;40.67
37832;BME280;23671;38.090;-122.570;2023-07-09T01:37:50;101081.75;;;24.37;40.66
37832;BME280;23671;38.090;-122.570;2023-07-09T01:40:19;101088.56;;;24.33;40.57
37832;BME280;23671;38.090;-122.570;2023-07-09T01:42:47;101074.03;;;24.27;40.77
37832;BME280;23671;38.090;-122.570;2023-07-09T01:45:14;101083.34;;;24.25;40.72
37832;BME280;23671;38.090;-122.570;2023-07-09T01:47:42;101088.31;;;24.21;40.58
37832;BME280;23671;38.090;-122.570;2023-07-09T01:50:11;101081.03;;;24.15;40.80
37832;BME280;23671;38.090;-122.570;2023-07-09T01:52:40;101090.97;;;24.08;40.76
37832;BME280;23671;38.090;-122.570;2023-07-09T01:55:10;101095.91;;;24.05;40.75
37832;BME280;23671;38.090;-122.570;2023-07-09T01:57:38;101105.59;;;23.99;40.76
37832;BME280;23671;38.090;-122.570;2023-07-09T02:00:10;101100.97;;;23.93;40.70
37832;BME280;23671;38.090;-122.570;2023-07-09T02:02:38;101093.31;;;23.90;40.39
37832;BME280;23671;38.090;-122.570;2023-07-09T02:05:16;101114.44;;;23.87;40.37
37832;BME280;23671;38.090;-122.570;2023-07-09T02:07:44;101108.00;;;23.81;40.53
37832;BME280;23671;38.090;-122.570;2023-07-09T02:10:12;101107.72;;;23.76;40.30
37832;BME280;23671;38.090;-122.570;2023-07-09T02:12:39;101105.81;;;23.70;40.30
37832;BME280;23671;38.090;-122.570;2023-07-09T02:15:07;101100.19;;;23.65;40.45
37832;BME280;23671;38.090;-122.570;2023-07-09T02:17:34;101107.84;;;23.62;40.16
37832;BME280;23671;38.090;-122.570;2023-07-09T02:20:02;101099.50;;;23.57;40.11
37832;BME280;23671;38.090;-122.570;2023-07-09T02:22:32;101101.13;;;23.51;40.02
37832;BME280;23671;38.090;-122.570;2023-07-09T02:24:59;101108.13;;;23.45;40.02
37832;BME280;23671;38.090;-122.570;2023-07-09T02:27:26;101101.66;;;23.40;39.96
37832;BME280;23671;38.090;-122.570;2023-07-09T02:29:54;101112.84;;;23.37;39.70
37832;BME280;23671;38.090;-122.570;2023-07-09T02:32:26;101109.22;;;23.30;39.71
37832;BME280;23671;38.090;-122.570;2023-07-09T02:34:54;101110.81;;;23.24;39.50
37832;BME280;23671;38.090;-122.570;2023-07-09T02:37:24;101101.66;;;23.19;39.48
37832;BME280;23671;38.090;-122.570;2023-07-09T02:39:52;101107.81;;;23.13;39.49
37832;BME280;23671;38.090;-122.570;2023-07-09T02:42:21;101104.44;;;23.04;39.49
37832;BME280;23671;38.090;-122.570;2023-07-09T02:44:49;101115.97;;;22.98;39.22
37832;BME280;23671;38.090;-122.570;2023-07-09T02:47:16;101101.22;;;22.94;39.31
37832;BME280;23671;38.090;-122.570;2023-07-09T02:49:43;101112.94;;;22.87;39.41
37832;BME280;23671;38.090;-122.570;2023-07-09T02:52:10;101115.38;;;22.82;39.26
37832;BME280;23671;38.090;-122.570;2023-07-09T02:54:37;101109.09;;;22.75;39.18
37832;BME280;23671;38.090;-122.570;2023-07-09T02:57:05;101115.22;;;22.69;39.25
37832;BME280;23671;38.090;-122.570;2023-07-09T02:59:32;101119.13;;;22.66;39.18
37832;BME280;23671;38.090;-122.570;2023-07-09T03:02:02;101115.53;;;22.59;39.16
37832;BME280;23671;38.090;-122.570;2023-07-09T03:04:29;101111.72;;;22.53;39.34
37832;BME280;23671;38.090;-122.570;2023-07-09T03:06:58;101117.00;;;22.47;39.24
37832;BME280;23671;38.090;-122.570;2023-07-09T03:09:26;101118.13;;;22.38;39.37
37832;BME280;23671;38.090;-122.570;2023-07-09T03:11:54;101121.38;;;22.33;39.18
37832;BME280;23671;38.090;-122.570;2023-07-09T03:14:21;101110.56;;;22.27;39.18
37832;BME280;23671;38.090;-122.570;2023-07-09T03:16:48;101110.47;;;22.20;39.25
37832;BME280;23671;38.090;-122.570;2023-07-09T03:19:15;101116.56;;;22.14;39.14
37832;BME280;23671;38.090;-122.570;2023-07-09T03:21:42;101117.31;;;22.08;39.13
37832;BME280;23671;38.090;-122.570;2023-07-09T03:24:10;101116.41;;;22.01;39.14
37832;BME280;23671;38.090;-122.570;2023-07-09T03:26:39;101121.50;;;21.96;39.09
37832;BME280;23671;38.090;-122.570;2023-07-09T03:29:06;101114.34;;;21.89;38.96
37832;BME280;23671;38.090;-122.570;2023-07-09T03:31:33;101119.44;;;21.84;39.10
37832;BME280;23671;38.090;-122.570;2023-07-09T03:34:01;101120.34;;;21.76;39.00
37832;BME280;23671;38.090;-122.570;2023-07-09T03:36:28;101114.69;;;21.71;39.19
37832;BME280;23671;38.090;-122.570;2023-07-09T03:38:55;101105.88;;;21.62;39.03
37832;BME280;23671;38.090;-122.570;2023-07-09T03:41:24;101114.13;;;21.61;39.05
37832;BME280;23671;38.090;-122.570;2023-07-09T03:43:51;101114.00;;;21.54;39.18
37832;BME280;23671;38.090;-122.570;2023-07-09T03:46:19;101111.22;;;21.48;39.24
37832;BME280;23671;38.090;-122.570;2023-07-09T03:48:46;101111.09;;;21.41;39.32
37832;BME280;23671;38.090;-122.570;2023-07-09T03:51:14;101104.16;;;21.32;39.35
37832;BME280;23671;38.090;-122.570;2023-07-09T03:53:41;101113.56;;;21.28;39.40
37832;BME280;23671;38.090;-122.570;2023-07-09T03:56:08;101116.78;;;21.24;39.52
37832;BME280;23671;38.090;-122.570;2023-07-09T03:58:36;101113.34;;;21.15;39.41
37832;BME280;23671;38.090;-122.570;2023-07-09T04:01:06;101115.72;;;21.10;39.47
37832;BME280;23671;38.090;-122.570;2023-07-09T04:03:33;101115.44;;;21.05;39.57
37832;BME280;23671;38.090;-122.570;2023-07-09T04:06:00;101124.19;;;20.99;39.58
37832;BME280;23671;38.090;-122.570;2023-07-09T04:08:27;101115.00;;;20.94;39.53
37832;BME280;23671;38.090;-122.570;2023-07-09T04:10:58;101119.38;;;20.87;39.68
37832;BME280;23671;38.090;-122.570;2023-07-09T04:13:26;101120.78;;;20.83;39.67
37832;BME280;23671;38.090;-122.570;2023-07-09T04:15:55;101119.63;;;20.77;39.71
37832;BME280;23671;38.090;-122.570;2023-07-09T04:18:22;101114.78;;;20.72;39.80
37832;BME280;23671;38.090;-122.570;2023-07-09T04:20:50;101114.47;;;20.67;39.79
37832;BME280;23671;38.090;-122.570;2023-07-09T04:23:18;101113.16;;;20.63;39.76
37832;BME280;23671;38.090;-122.570;2023-07-09T04:25:45;101131.63;;;20.58;39.89
37832;BME280;23671;38.090;-122.570;2023-07-09T04:28:12;101126.97;;;20.52;40.01
37832;BME280;23671;38.090;-122.570;2023-07-09T04:30:45;101126.84;;;20.46;39.90
37832;BME280;23671;38.090;-122.570;2023-07-09T04:33:14;101130.22;;;20.40;39.99
37832;BME280;23671;38.090;-122.570;2023-07-09T04:35:46;101139.63;;;20.36;39.83
37832;BME280;23671;38.090;-122.570;2023-07-09T04:38:14;101141.84;;;20.32;40.13
37832;BME280;23671;38.090;-122.570;2023-07-09T04:40:42;101151.06;;;20.30;40.10
37832;BME280;23671;38.090;-122.570;2023-07-09T04:43:09;101158.13;;;20.23;40.07
37832;BME280;23671;38.090;-122.570;2023-07-09T04:45:37;101154.13;;;20.19;40.21
37832;BME280;23671;38.090;-122.570;2023-07-09T04:48:04;101157.28;;;20.14;40.12
37832;BME280;23671;38.090;-122.570;2023-07-09T04:50:31;101156.13;;;20.09;40.12
37832;BME280;23671;38.090;-122.570;2023-07-09T04:52:59;101160.16;;;20.05;40.28
37832;BME280;23671;38.090;-122.570;2023-07-09T04:55:27;101157.81;;;20.02;40.39
37832;BME280;23671;38.090;-122.570;2023-07-09T04:57:54;101161.34;;;19.94;40.21
37832;BME280;23671;38.090;-122.570;2023-07-09T05:00:21;101159.38;;;19.88;40.48
37832;BME280;23671;38.090;-122.570;2023-07-09T05:02:48;101171.25;;;19.85;40.45
37832;BME280;23671;38.090;-122.570;2023-07-09T05:05:16;101175.94;;;19.83;40.52
37832;BME280;23671;38.090;-122.570;2023-07-09T05:07:42;101173.09;;;19.77;40.49
37832;BME280;23671;38.090;-122.570;2023-07-09T05:10:10;101178.47;;;19.77;40.49
37832;BME280;23671;38.090;-122.570;2023-07-09T05:12:48;101186.19;;;19.72;40.32
37832;BME280;23671;38.090;-122.570;2023-07-09T05:15:17;101196.22;;;19.70;40.37
37832;BME280;23671;38.090;-122.570;2023-07-09T05:17:45;101197.06;;;19.62;40.48
37832;BME280;23671;38.090;-122.570;2023-07-09T05:20:13;101201.59;;;19.62;40.56
37832;BME280;23671;38.090;-122.570;2023-07-09T05:22:41;101196.03;;;19.55;40.51
37832;BME280;23671;38.090;-122.570;2023-07-09T05:25:08;101196.41;;;19.52;40.59
37832;BME280;23671;38.090;-122.570;2023-07-09T05:27:36;101192.19;;;19.50;40.49
37832;BME280;23671;38.090;-122.570;2023-07-09T05:30:03;101197.91;;;19.47;40.62
37832;BME280;23671;38.090;-122.570;2023-07-09T05:32:31;101196.91;;;19.40;40.72
37832;BME280;23671;38.090;-122.570;2023-07-09T05:34:58;101194.38;;;19.38;40.82
37832;BME280;23671;38.090;-122.570;2023-07-09T05:37:25;101197.56;;;19.34;40.70
37832;BME280;23671;38.090;-122.570;2023-07-09T05:39:52;101198.03;;;19.29;40.78
37832;BME280;23671;38.090;-122.570;2023-07-09T05:42:19;101188.13;;;19.22;40.94
37832;BME280;23671;38.090;-122.570;2023-07-09T05:44:46;101187.47;;;19.20;40.92
37832;BME280;23671;38.090;-122.570;2023-07-09T05:47:14;101183.63;;;19.14;41.00
37832;BME280;23671;38.090;-122.570;2023-07-09T05:49:41;101192.81;;;19.12;40.96
37832;BME280;23671;38.090;-122.570;2023-07-09T05:52:08;101186.09;;;19.08;41.01
37832;BME280;23671;38.090;-122.570;2023-07-09T05:54:35;101197.16;;;19.04;41.09
37832;BME280;23671;38.090;-122.570;2023-07-09T05:57:02;101187.78;;;19.00;41.29
37832;BME280;23671;38.090;-122.570;2023-07-09T05:59:29;101193.44;;;18.97;41.22
37832;BME280;23671;38.090;-122.570;2023-07-09T06:01:59;101187.75;;;18.92;41.32
37832;BME280;23671;38.090;-122.570;2023-07-09T06:04:27;101191.75;;;18.88;41.16
37832;BME280;23671;38.090;-122.570;2023-07-09T06:06:54;101194.59;;;18.87;41.30
37832;BME280;23671;38.090;-122.570;2023-07-09T06:09:21;101186.38;;;18.80;41.44
37832;BME280;23671;38.090;-122.570;2023-07-09T06:11:48;101181.66;;;18.74;41.51
37832;BME280;23671;38.090;-122.570;2023-07-09T06:14:15;101186.34;;;18.72;41.56
37832;BME280;23671;38.090;-122.570;2023-07-09T06:16:43;101168.13;;;18.68;41.56
37832;BME280;23671;38.090;-122.570;2023-07-09T06:19:11;101177.47;;;18.64;41.73
37832;BME280;23671;38.090;-122.570;2023-07-09T06:21:38;101181.97;;;18.63;41.66
37832;BME280;23671;38.090;-122.570;2023-07-09T06:24:07;101182.47;;;18.59;41.51
37832;BME280;23671;38.090;-122.570;2023-07-09T06:26:34;101176.75;;;18.54;41.71
37832;BME280;23671;38.090;-122.570;2023-07-09T06:29:02;101167.88;;;18.53;41.93
37832;BME280;23671;38.090;-122.570;2023-07-09T06:31:29;101166.53;;;18.49;41.65
37832;BME280;23671;38.090;-122.570;2023-07-09T06:33:56;101174.88;;;18.46;41.83
37832;BME280;23671;38.090;-122.570;2023-07-09T06:36:23;101174.50;;;18.41;41.80
37832;BME280;23671;38.090;-122.570;2023-07-09T06:38:51;101180.84;;;18.40;41.92
37832;BME280;23671;38.090;-122.570;2023-07-09T06:41:18;101169.78;;;18.35;41.94
37832;BME280;23671;38.090;-122.570;2023-07-09T06:43:45;101173.63;;;18.33;41.97
37832;BME280;23671;38.090;-122.570;2023-07-09T06:46:13;101176.28;;;18.33;42.12
37832;BME280;23671;38.090;-122.570;2023-07-09T06:48:41;101184.94;;;18.27;41.99
37832;BME280;23671;38.090;-122.570;2023-07-09T06:51:08;101187.78;;;18.25;41.93
37832;BME280;23671;38.090;-122.570;2023-07-09T06:53:35;101188.41;;;18.19;42.07
37832;BME280;23671;38.090;-122.570;2023-07-09T06:56:03;101189.56;;;18.16;42.21
37832;BME280;23671;38.090;-122.570;2023-07-09T06:58:31;101192.25;;;18.16;42.21
37832;BME280;23671;38.090;-122.570;2023-07-09T07:01:02;101196.09;;;18.14;42.04
37832;BME280;23671;38.090;-122.570;2023-07-09T07:03:33;101193.03;;;18.09;42.30
37832;BME280;23671;38.090;-122.570;2023-07-09T07:06:01;101197.84;;;18.05;42.27
37832;BME280;23671;38.090;-122.570;2023-07-09T07:08:28;101206.88;;;18.04;42.26
37832;BME280;23671;38.090;-122.570;2023-07-09T07:10:57;101201.03;;;18.01;42.33
37832;BME280;23671;38.090;-122.570;2023-07-09T07:13:36;101199.66;;;17.97;42.15
37832;BME280;23671;38.090;-122.570;2023-07-09T07:16:06;101200.97;;;17.93;42.26
37832;BME280;23671;38.090;-122.570;2023-07-09T07:18:34;101200.28;;;17.91;42.55
37832;BME280;23671;38.090;-122.570;2023-07-09T07:21:01;101204.09;;;17.88;42.24
37832;BME280;23671;38.090;-122.570;2023-07-09T07:23:29;101205.09;;;17.87;42.38
37832;BME280;23671;38.090;-122.570;2023-07-09T07:25:56;101197.56;;;17.83;42.46
37832;BME280;23671;38.090;-122.570;2023-07-09T07:28:23;101194.19;;;17.81;42.59
37832;BME280;23671;38.090;-122.570;2023-07-09T07:31:05;101194.53;;;17.78;42.41
37832;BME280;23671;38.090;-122.570;2023-07-09T07:33:34;101191.16;;;17.76;42.50
37832;BME280;23671;38.090;-122.570;2023-07-09T07:36:04;101200.16;;;17.75;42.40
37832;BME280;23671;38.090;-122.570;2023-07-09T07:38:32;101193.59;;;17.69;42.32
37832;BME280;23671;38.090;-122.570;2023-07-09T07:40:59;101192.91;;;17.67;42.50
37832;BME280;23671;38.090;-122.570;2023-07-09T07:43:26;101197.56;;;17.65;42.41
37832;BME280;23671;38.090;-122.570;2023-07-09T07:45:53;101189.88;;;17.62;42.51
37832;BME280;23671;38.090;-122.570;2023-07-09T07:48:23;101185.84;;;17.58;42.58
37832;BME280;23671;38.090;-122.570;2023-07-09T07:50:50;101180.97;;;17.54;42.71
37832;BME280;23671;38.090;-122.570;2023-07-09T07:53:18;101194.00;;;17.57;42.51
37832;BME280;23671;38.090;-122.570;2023-07-09T07:55:45;101198.00;;;17.53;42.68
37832;BME280;23671;38.090;-122.570;2023-07-09T07:58:13;101186.63;;;17.51;42.64
37832;BME280;23671;38.090;-122.570;2023-07-09T08:00:41;101189.56;;;17.48;42.88
37832;BME280;23671;38.090;-122.570;2023-07-09T08:03:08;101183.84;;;17.43;42.66
37832;BME280;23671;38.090;-122.570;2023-07-09T08:05:35;101196.19;;;17.44;42.88
37832;BME280;23671;38.090;-122.570;2023-07-09T08:08:02;101197.19;;;17.43;42.93
37832;BME280;23671;38.090;-122.570;2023-07-09T08:10:29;101187.81;;;17.39;42.84
37832;BME280;23671;38.090;-122.570;2023-07-09T08:12:56;101197.97;;;17.35;42.96
37832;BME280;23671;38.090;-122.570;2023-07-09T08:15:27;101193.75;;;17.33;43.00
37832;BME280;23671;38.090;-122.570;2023-07-09T08:17:54;101198.09;;;17.34;43.05
37832;BME280;23671;38.090;-122.570;2023-07-09T08:20:21;101190.41;;;17.31;42.97
37832;BME280;23671;38.090;-122.570;2023-07-09T08:22:48;101183.69;;;17.26;42.91
37832;BME280;23671;38.090;-122.570;2023-07-09T08:25:15;101189.03;;;17.26;42.93
37832;BME280;23671;38.090;-122.570;2023-07-09T08:27:42;101195.50;;;17.24;43.21
37832;BME280;23671;38.090;-122.570;2023-07-09T08:30:10;101194.81;;;17.22;43.21
37832;BME280;23671;38.090;-122.570;2023-07-09T08:32:37;101189.47;;;17.22;43.18
37832;BME280;23671;38.090;-122.570;2023-07-09T08:35:04;101189.97;;;17.17;43.10
37832;BME280;23671;38.090;-122.570;2023-07-09T08:37:31;101193.59;;;17.16;43.34
37832;BME280;23671;38.090;-122.570;2023-07-09T08:39:58;101185.75;;;17.15;43.05
37832;BME280;23671;38.090;-122.570;2023-07-09T08:42:45;101194.75;;;17.14;43.21
37832;BME280;23671;38.090;-122.570;2023-07-09T08:45:38;101206.41;;;17.13;43.47
37832;BME280;23671;38.090;-122.570;2023-07-09T08:50:53;101194.19;;;17.10;43.22
37832;BME280;23671;38.090;-122.570;2023-07-09T08:56:32;101200.16;;;17.04;43.37
37832;BME280;23671;38.090;-122.570;2023-07-09T08:59:02;101201.16;;;17.03;43.53
37832;BME280;23671;38.090;-122.570;2023-07-09T09:01:48;101196.81;;;17.02;43.23
37832;BME280;23671;38.090;-122.570;2023-07-09T09:04:24;101210.97;;;17.03;43.71
37832;BME280;23671;38.090;-122.570;2023-07-09T09:07:14;101211.56;;;16.97;43.79
37832;BME280;23671;38.090;-122.570;2023-07-09T09:09:53;101206.38;;;16.95;43.64
37832;BME280;23671;38.090;-122.570;2023-07-09T09:12:28;101200.38;;;16.93;43.94
37832;BME280;23671;38.090;-122.570;2023-07-09T09:15:19;101203.88;;;16.94;43.38
37832;BME280;23671;38.090;-122.570;2023-07-09T09:17:50;101206.38;;;16.95;43.56
37832;BME280;23671;38.090;-122.570;2023-07-09T09:20:22;101212.41;;;16.97;43.80
37832;BME280;23671;38.090;-122.570;2023-07-09T09:25:39;101202.50;;;16.90;43.49
37832;BME280;23671;38.090;-122.570;2023-07-09T09:28:08;101207.84;;;16.90;43.80
37832;BME280;23671;38.090;-122.570;2023-07-09T09:30:35;101202.94;;;16.85;43.83
37832;BME280;23671;38.090;-122.570;2023-07-09T09:33:09;101210.81;;;16.87;43.87
37832;BME280;23671;38.090;-122.570;2023-07-09T09:35:41;101213.47;;;16.87;43.65
37832;BME280;23671;38.090;-122.570;2023-07-09T09:38:19;101210.28;;;16.83;43.67
37832;BME280;23671;38.090;-122.570;2023-07-09T09:40:46;101206.75;;;16.83;44.02
37832;BME280;23671;38.090;-122.570;2023-07-09T09:43:19;101211.78;;;16.86;43.88
37832;BME280;23671;38.090;-122.570;2023-07-09T09:45:52;101207.72;;;16.82;43.74
37832;BME280;23671;38.090;-122.570;2023-07-09T09:48:30;101200.91;;;16.79;43.92
37832;BME280;23671;38.090;-122.570;2023-07-09T09:50:58;101199.19;;;16.78;44.16
37832;BME280;23671;38.090;-122.570;2023-07-09T09:53:29;101204.53;;;16.78;43.97
37832;BME280;23671;38.090;-122.570;2023-07-09T09:56:05;101190.81;;;16.73;44.15
37832;BME280;23671;38.090;-122.570;2023-07-09T09:58:33;101194.88;;;16.77;44.09
37832;BME280;23671;38.090;-122.570;2023-07-09T10:01:00;101192.19;;;16.77;44.31
37832;BME280;23671;38.090;-122.570;2023-07-09T10:03:35;101193.19;;;16.76;43.98
37832;BME280;23671;38.090;-122.570;2023-07-09T10:06:37;101204.84;;;16.75;44.19
37832;BME280;23671;38.090;-122.570;2023-07-09T10:11:54;101201.63;;;16.72;44.25
37832;BME280;23671;38.090;-122.570;2023-07-09T10:17:22;101198.41;;;16.68;44.44
37832;BME280;23671;38.090;-122.570;2023-07-09T10:20:02;101208.25;;;16.68;44.51
37832;BME280;23671;38.090;-122.570;2023-07-09T10:23:13;101192.38;;;16.66;44.13
37832;BME280;23671;38.090;-122.570;2023-07-09T10:31:21;101202.34;;;16.64;44.48
37832;BME280;23671;38.090;-122.570;2023-07-09T10:34:32;101215.56;;;16.66;44.53
37832;BME280;23671;38.090;-122.570;2023-07-09T10:37:19;101208.00;;;16.61;44.64
37832;BME280;23671;38.090;-122.570;2023-07-09T10:39:50;101214.03;;;16.63;44.29
37832;BME280;23671;38.090;-122.570;2023-07-09T10:42:44;101202.81;;;16.60;44.52
37832;BME280;23671;38.090;-122.570;2023-07-09T10:45:24;101202.81;;;16.60;44.45
37832;BME280;23671;38.090;-122.570;2023-07-09T10:48:02;101204.63;;;16.59;44.21
37832;BME280;23671;38.090;-122.570;2023-07-09T10:50:42;101190.78;;;16.56;44.38
37832;BME280;23671;38.090;-122.570;2023-07-09T10:53:16;101197.66;;;16.58;44.55
37832;BME280;23671;38.090;-122.570;2023-07-09T10:56:12;101197.78;;;16.57;44.49
37832;BME280;23671;38.090;-122.570;2023-07-09T10:58:56;101191.47;;;16.58;44.77
37832;BME280;23671;38.090;-122.570;2023-07-09T11:01:33;101204.94;;;16.56;44.76
37832;BME280;23671;38.090;-122.570;2023-07-09T11:04:12;101201.59;;;16.54;44.54
37832;BME280;23671;38.090;-122.570;2023-07-09T11:06:47;101189.22;;;16.53;44.81
37832;BME280;23671;38.090;-122.570;2023-07-09T11:09:27;101203.56;;;16.52;44.92
37832;BME280;23671;38.090;-122.570;2023-07-09T11:11:59;101199.91;;;16.53;44.64
37832;BME280;23671;38.090;-122.570;2023-07-09T11:17:17;101197.53;;;16.50;45.10
37832;BME280;23671;38.090;-122.570;2023-07-09T11:19:55;101203.69;;;16.51;45.09
37832;BME280;23671;38.090;-122.570;2023-07-09T11:22:35;101203.56;;;16.52;44.83
37832;BME280;23671;38.090;-122.570;2023-07-09T11:25:10;101198.63;;;16.48;44.98
37832;BME280;23671;38.090;-122.570;2023-07-09T11:27:54;101203.13;;;16.47;45.33
37832;BME280;23671;38.090;-122.570;2023-07-09T11:30:26;101196.97;;;16.47;45.36
37832;BME280;23671;38.090;-122.570;2023-07-09T11:33:03;101198.63;;;16.48;45.26
37832;BME280;23671;38.090;-122.570;2023-07-09T11:35:49;101205.94;;;16.46;45.28
37832;BME280;23671;38.090;-122.570;2023-07-09T11:38:22;101204.13;;;16.46;44.97
37832;BME280;23671;38.090;-122.570;2023-07-09T11:40:51;101206.09;;;16.44;44.91
37832;BME280;23671;38.090;-122.570;2023-07-09T11:43:34;101197.94;;;16.46;45.47
37832;BME280;23671;38.090;-122.570;2023-07-09T11:46:22;101208.59;;;16.46;45.22
37832;BME280;23671;38.090;-122.570;2023-07-09T11:48:55;101202.72;;;16.42;45.30
37832;BME280;23671;38.090;-122.570;2023-07-09T11:51:50;101206.38;;;16.41;45.07
37832;BME280;23671;38.090;-122.570;2023-07-09T11:54:19;101200.91;;;16.43;45.22
37832;BME280;23671;38.090;-122.570;2023-07-09T11:56:57;101197.56;;;16.41;45.03
37832;BME280;23671;38.090;-122.570;2023-07-09T11:59:25;101208.34;;;16.39;45.33
37832;BME280;23671;38.090;-122.570;2023-07-09T12:01:53;101206.66;;;16.38;45.54
37832;BME280;23671;38.090;-122.570;2023-07-09T12:04:22;101211.16;;;16.37;45.29
37832;BME280;23671;38.090;-122.570;2023-07-09T12:06:56;101217.34;;;16.38;45.45
37832;BME280;23671;38.090;-122.570;2023-07-09T12:09:24;101216.47;;;16.37;45.54
37832;BME280;23671;38.090;-122.570;2023-07-09T12:11:51;101211.47;;;16.34;45.51
37832;BME280;23671;38.090;-122.570;2023-07-09T12:14:21;101209.63;;;16.35;45.38
37832;BME280;23671;38.090;-122.570;2023-07-09T12:16:51;101212.31;;;16.35;45.26
37832;BME280;23671;38.090;-122.570;2023-07-09T12:19:19;101216.94;;;16.33;45.58
37832;BME280;23671;38.090;-122.570;2023-07-09T12:21:48;101221.97;;;16.36;45.64
37832;BME280;23671;38.090;-122.570;2023-07-09T12:24:22;101223.09;;;16.33;45.80
37832;BME280;23671;38.090;-122.570;2023-07-09T12:26:53;101222.38;;;16.31;45.55
37832;BME280;23671;38.090;-122.570;2023-07-09T12:29:24;101214.56;;;16.30;45.75
37832;BME280;23671;38.090;-122.570;2023-07-09T12:31:52;101224.09;;;16.32;45.45
37832;BME280;23671;38.090;-122.570;2023-07-09T12:34:19;101233.91;;;16.32;45.45
37832;BME280;23671;38.090;-122.570;2023-07-09T12:36:51;101221.84;;;16.28;45.68
37832;BME280;23671;38.090;-122.570;2023-07-09T12:39:25;101230.53;;;16.30;45.84
37832;BME280;23671;38.090;-122.570;2023-07-09T12:41:56;101229.69;;;16.29;45.70
37832;BME280;23671;38.090;-122.570;2023-07-09T12:44:26;101231.66;;;16.27;45.63
37832;BME280;23671;38.090;-122.570;2023-07-09T12:46:56;101241.34;;;16.28;45.91
37832;BME280;23671;38.090;-122.570;2023-07-09T12:49:29;101236.19;;;16.27;45.50
37832;BME280;23671;38.090;-122.570;2023-07-09T12:52:00;101252.84;;;16.29;45.54
37832;BME280;23671;38.090;-122.570;2023-07-09T12:54:29;101249.34;;;16.28;45.67
37832;BME280;23671;38.090;-122.570;2023-07-09T12:56:58;101245.13;;;16.26;45.74
37832;BME280;23671;38.090;-122.570;2023-07-09T12:59:27;101249.78;;;16.24;45.80
37832;BME280;23671;38.090;-122.570;2023-07-09T13:04:47;101247.94;;;16.24;45.67
37832;BME280;23671;38.090;-122.570;2023-07-09T13:07:29;101251.63;;;16.23;45.63